Time;durP1;ratioP1;P1;durP2;ratioP2;P2;SDS_P1;SDS_P2;PMS_P1;PMS_P2;Temp;Humidity;BMP_temperature;BMP_pressure;BME280_temperature;BME280_humidity;BME280_pressure;Samples;Min_cycle;Max_cycle;Signal;HPM_P1;HPM_P2
2022/11/03 00:02:20;;;;;;;13.93;7.00;;;5.30;99.90;;;;;;5055304;28;20092;-85
2022/11/03 00:04:45;;;;;;;10.37;6.67;;;5.30;99.90;;;;;;5055705;28;20032;-85
2022/11/03 00:07:11;;;;;;;13.50;8.07;;;5.30;99.90;;;;;;5055254;28;20028;-85
2022/11/03 00:09:37;;;;;;;16.30;9.10;;;5.30;99.90;;;;;;5054655;28;20032;-85
2022/11/03 00:12:03;;;;;;;17.30;8.53;;;5.30;99.90;;;;;;5055567;28;20464;-85
2022/11/03 00:14:28;;;;;;;19.20;8.87;;;5.30;99.90;;;;;;5055081;28;20020;-85
2022/11/03 00:16:54;;;;;;;15.57;8.63;;;5.40;99.90;;;;;;5054663;28;20373;-85
2022/11/03 00:19:19;;;;;;;19.97;9.00;;;5.40;99.90;;;;;;5054800;28;20017;-85
2022/11/03 00:21:45;;;;;;;13.83;9.20;;;5.40;99.90;;;;;;5054757;28;20025;-85
2022/11/03 00:24:12;;;;;;;16.73;9.63;;;5.40;99.90;;;;;;5054902;28;20020;-85
2022/11/03 00:26:38;;;;;;;18.80;10.77;;;5.40;99.90;;;;;;5054909;28;20096;-85
2022/11/03 00:29:09;;;;;;;13.83;9.37;;;5.40;99.90;;;;;;5054886;28;20029;-85
2022/11/03 00:31:36;;;;;;;17.00;9.47;;;5.40;99.90;;;;;;5054598;28;20527;-85
2022/11/03 00:34:03;;;;;;;12.33;8.67;;;5.50;99.90;;;;;;5054475;28;20504;-85
2022/11/03 00:36:31;;;;;;;13.07;7.70;;;5.50;99.90;;;;;;5054615;28;20021;-85
2022/11/03 00:38:57;;;;;;;12.40;6.80;;;5.50;99.90;;;;;;5054428;28;20025;-85
2022/11/03 00:41:25;;;;;;;12.50;6.80;;;5.40;99.90;;;;;;5054385;28;20028;-85
2022/11/03 00:43:52;;;;;;;12.73;6.60;;;5.40;99.90;;;;;;5054698;28;20032;-85
2022/11/03 00:46:19;;;;;;;12.67;5.80;;;5.30;99.90;;;;;;5055475;28;20413;-85
2022/11/03 00:48:45;;;;;;;9.97;6.43;;;5.30;99.90;;;;;;5054940;28;20032;-85
2022/11/03 00:51:13;;;;;;;14.27;6.40;;;5.30;99.90;;;;;;5055620;28;20036;-85
2022/11/03 00:53:50;;;;;;;11.07;6.60;;;5.20;99.90;;;;;;5055331;28;20025;-85
2022/11/03 00:56:17;;;;;;;9.93;6.70;;;5.20;99.90;;;;;;5054100;28;20029;-85
2022/11/03 00:58:42;;;;;;;11.97;6.47;;;5.20;99.90;;;;;;5054503;28;20138;-85
2022/11/03 01:01:20;;;;;;;9.83;6.23;;;5.10;99.90;;;;;;5054229;28;20025;-85
2022/11/03 01:06:51;;;;;;;9.03;6.77;;;5.10;99.90;;;;;;5054078;28;20032;-85
2022/11/03 01:09:34;;;;;;;11.57;6.23;;;5.10;99.90;;;;;;5054060;28;20029;-85
2022/11/03 01:12:04;;;;;;;11.27;6.53;;;5.10;99.90;;;;;;5053836;28;20021;-85
2022/11/03 01:14:39;;;;;;;13.23;6.60;;;5.10;99.90;;;;;;5054386;28;20021;-85
2022/11/03 01:17:07;;;;;;;13.23;6.78;;;5.10;99.90;;;;;;5053770;28;20045;-85
2022/11/03 01:19:33;;;;;;;12.40;7.27;;;5.10;99.90;;;;;;5053811;28;20377;-85
2022/11/03 01:21:59;;;;;;;9.97;7.13;;;5.10;99.90;;;;;;5053426;28;20032;-85
2022/11/03 01:24:24;;;;;;;17.23;8.77;;;5.10;99.90;;;;;;5053616;28;20028;-85
2022/11/03 01:26:50;;;;;;;12.90;6.73;;;5.10;99.90;;;;;;5054215;28;20454;-85
2022/11/03 01:29:16;;;;;;;13.27;7.77;;;5.10;99.90;;;;;;5053920;28;20040;-85
2022/11/03 01:31:41;;;;;;;12.57;7.87;;;5.00;99.90;;;;;;5053531;28;20021;-85
2022/11/03 01:34:13;;;;;;;10.63;7.00;;;5.00;99.90;;;;;;5053702;28;20021;-85
2022/11/03 01:36:38;;;;;;;10.77;7.07;;;5.00;99.90;;;;;;5053633;28;20021;-85
2022/11/03 01:39:04;;;;;;;10.77;7.73;;;5.00;99.90;;;;;;5053634;28;20420;-85
2022/11/03 01:41:29;;;;;;;13.87;7.30;;;5.00;99.90;;;;;;5053978;28;20090;-85
2022/11/03 01:44:07;;;;;;;13.53;8.53;;;5.00;99.90;;;;;;5051996;28;20025;-85
2022/11/03 01:46:53;;;;;;;15.53;7.33;;;5.00;99.90;;;;;;5053196;28;20119;-85
2022/11/03 01:49:26;;;;;;;10.80;7.93;;;5.00;99.90;;;;;;5053313;28;20028;-84
2022/11/03 01:51:59;;;;;;;14.90;8.00;;;5.00;99.90;;;;;;5053125;28;20029;-85
2022/11/03 01:54:27;;;;;;;10.37;6.90;;;4.90;99.90;;;;;;5053205;28;20078;-84
2022/11/03 01:56:54;;;;;;;15.03;7.13;;;4.90;99.90;;;;;;5053122;28;20124;-84
2022/11/03 01:59:22;;;;;;;12.67;7.63;;;4.90;99.90;;;;;;5053215;28;20020;-84
2022/11/03 02:01:48;;;;;;;11.87;7.40;;;4.90;99.90;;;;;;5053141;28;20021;-84
2022/11/03 02:04:25;;;;;;;11.13;7.13;;;4.80;99.90;;;;;;5052857;28;20048;-84
2022/11/03 02:07:00;;;;;;;11.10;7.27;;;4.80;99.90;;;;;;5052677;28;20438;-84
2022/11/03 02:09:26;;;;;;;10.57;7.43;;;4.80;99.90;;;;;;5052750;28;20037;-84
2022/11/03 02:12:07;;;;;;;12.93;7.53;;;4.80;99.90;;;;;;5053047;28;20114;-84
2022/11/03 02:14:35;;;;;;;18.63;8.50;;;4.80;99.90;;;;;;5052743;28;20079;-84
2022/11/03 02:17:05;;;;;;;18.97;7.27;;;4.80;99.90;;;;;;5052463;28;20114;-84
2022/11/03 02:19:36;;;;;;;15.37;7.00;;;4.80;99.90;;;;;;5052859;28;20071;-84
2022/11/03 02:22:26;;;;;;;14.50;8.27;;;4.80;99.90;;;;;;5052656;28;20064;-84
2022/11/03 02:25:01;;;;;;;24.93;8.80;;;4.80;99.90;;;;;;5052665;28;20021;-84
2022/11/03 02:27:27;;;;;;;18.70;8.93;;;4.80;99.90;;;;;;5050916;28;20547;-83
2022/11/03 02:29:53;;;;;;;19.33;9.07;;;4.80;99.90;;;;;;5047194;28;20041;-83
2022/11/03 02:32:26;;;;;;;21.07;8.63;;;4.80;99.90;;;;;;5039085;28;20102;-83
2022/11/03 02:35:18;;;;;;;25.87;9.53;;;4.80;99.90;;;;;;5034682;28;20025;-83
2022/11/03 02:37:48;;;;;;;22.10;8.57;;;4.80;99.90;;;;;;5034331;28;20042;-83
2022/11/03 02:40:23;;;;;;;22.70;9.60;;;4.80;99.90;;;;;;5034430;28;20034;-83
2022/11/03 02:42:52;;;;;;;15.90;8.80;;;4.80;99.90;;;;;;5044394;28;20391;-83
2022/11/03 02:45:21;;;;;;;18.33;8.57;;;4.80;99.90;;;;;;5054483;28;20025;-83
2022/11/03 02:47:48;;;;;;;27.43;9.10;;;4.70;99.90;;;;;;5054491;28;20036;-83
2022/11/03 02:50:14;;;;;;;15.20;8.80;;;4.70;99.90;;;;;;5054066;28;20116;-84
2022/11/03 02:52:42;;;;;;;19.50;8.73;;;4.70;99.90;;;;;;5054593;28;20107;-84
2022/11/03 02:55:21;;;;;;;14.17;8.17;;;4.70;99.90;;;;;;5056209;28;20033;-84
2022/11/03 02:58:09;;;;;;;16.77;9.60;;;4.70;99.90;;;;;;5056450;28;20055;-84
2022/11/03 03:01:01;;;;;;;12.00;8.40;;;4.70;99.90;;;;;;5056194;28;20104;-85
2022/11/03 03:03:59;;;;;;;14.30;7.50;;;4.60;99.90;;;;;;5048004;28;20037;-84
2022/11/03 03:06:57;;;;;;;13.63;7.13;;;4.60;99.90;;;;;;5056155;28;20017;-84
2022/11/03 03:09:27;;;;;;;15.47;7.67;;;4.60;99.90;;;;;;5051251;28;20460;-84
2022/11/03 03:11:57;;;;;;;12.47;7.60;;;4.50;99.90;;;;;;5056514;28;20932;-84
2022/11/03 03:14:27;;;;;;;12.60;7.43;;;4.50;99.90;;;;;;5055952;28;20025;-84
2022/11/03 03:17:13;;;;;;;11.50;7.00;;;4.50;99.90;;;;;;5055670;28;20052;-84
2022/11/03 03:19:55;;;;;;;10.70;7.37;;;4.50;99.90;;;;;;5056063;28;20025;-84
2022/11/03 03:22:41;;;;;;;15.50;7.30;;;4.40;99.90;;;;;;5055826;28;20029;-84
2022/11/03 03:25:07;;;;;;;12.20;6.30;;;4.40;99.90;;;;;;5054437;28;20120;-84
2022/11/03 03:27:38;;;;;;;12.70;6.97;;;4.40;99.90;;;;;;5055886;28;20104;-84
2022/11/03 03:30:05;;;;;;;14.53;6.37;;;4.40;99.90;;;;;;5055700;28;20021;-84
2022/11/03 03:32:36;;;;;;;10.20;6.63;;;4.40;99.90;;;;;;5054192;28;20049;-84
2022/11/03 03:35:06;;;;;;;8.80;5.53;;;4.40;99.90;;;;;;5055854;28;20033;-84
2022/11/03 03:37:36;;;;;;;8.80;5.87;;;4.30;99.90;;;;;;5054544;28;20377;-83
2022/11/03 03:40:06;;;;;;;8.00;5.40;;;4.30;99.90;;;;;;5053607;28;20043;-83
2022/11/03 03:42:35;;;;;;;9.17;5.97;;;4.20;99.90;;;;;;5053215;28;20025;-83
2022/11/03 03:45:01;;;;;;;9.53;5.70;;;4.20;99.90;;;;;;5052633;28;20021;-83
2022/11/03 03:47:29;;;;;;;9.03;6.13;;;4.20;99.90;;;;;;5053465;28;20053;-83
2022/11/03 03:49:55;;;;;;;9.63;5.93;;;4.10;99.90;;;;;;5053342;28;20452;-83
2022/11/03 03:52:21;;;;;;;7.87;5.03;;;4.10;99.90;;;;;;5053039;28;20032;-83
2022/11/03 03:54:47;;;;;;;7.40;5.93;;;4.10;99.90;;;;;;5053305;28;20100;-83
2022/11/03 03:57:15;;;;;;;10.47;6.07;;;4.10;99.90;;;;;;5053053;28;20112;-83
2022/11/03 03:59:42;;;;;;;11.37;5.70;;;4.10;99.90;;;;;;5052653;28;20013;-83
2022/11/03 04:02:08;;;;;;;7.30;6.17;;;4.10;99.90;;;;;;5052935;28;20021;-83
2022/11/03 04:04:34;;;;;;;8.03;5.33;;;4.10;99.90;;;;;;5053154;28;20082;-83
2022/11/03 04:09:43;;;;;;;8.73;5.77;;;4.00;99.90;;;;;;5052775;28;20036;-83
2022/11/03 04:23:17;;;;;;;7.93;5.55;;;3.90;99.90;;;;;;5052730;28;20078;-83
2022/11/03 04:25:48;;;;;;;10.23;6.20;;;3.90;99.90;;;;;;5052534;28;20029;-83
2022/11/03 04:28:14;;;;;;;10.60;5.97;;;3.90;99.90;;;;;;5052175;28;20033;-83
2022/11/03 04:30:40;;;;;;;8.53;5.57;;;3.80;99.90;;;;;;5044337;28;20029;-83
2022/11/03 04:33:20;;;;;;;11.40;6.10;;;3.80;99.90;;;;;;5037396;28;20041;-83
2022/11/03 04:35:46;;;;;;;9.50;6.50;;;3.80;99.90;;;;;;5032465;28;20029;-83
2022/11/03 04:38:12;;;;;;;12.13;6.27;;;3.80;99.90;;;;;;5052205;28;20025;-83
2022/11/03 04:40:43;;;;;;;11.20;6.63;;;3.70;99.90;;;;;;5052636;28;20025;-83
2022/11/03 04:43:13;;;;;;;9.47;6.27;;;3.70;99.90;;;;;;5052385;28;20359;-83
2022/11/03 04:45:41;;;;;;;9.00;6.60;;;3.70;99.90;;;;;;5052123;28;20017;-83
2022/11/03 04:48:15;;;;;;;9.33;6.40;;;3.70;99.90;;;;;;5052405;28;20035;-83
2022/11/03 04:50:42;;;;;;;10.10;6.28;;;3.70;99.90;;;;;;5051963;28;20021;-83
2022/11/03 04:53:13;;;;;;;15.97;7.70;;;3.70;99.90;;;;;;5051513;28;20041;-83
2022/11/03 04:55:40;;;;;;;19.23;8.03;;;3.70;99.90;;;;;;5052286;28;20025;-83
2022/11/03 04:58:21;;;;;;;25.07;7.70;;;3.70;99.90;;;;;;5050946;28;20033;-83
2022/11/03 05:00:50;;;;;;;66.47;8.33;;;3.70;99.90;;;;;;5051754;28;20024;-83
2022/11/03 05:03:22;;;;;;;21.13;6.87;;;3.70;99.90;;;;;;5051853;28;20592;-83
2022/11/03 05:05:48;;;;;;;51.37;7.70;;;3.70;99.90;;;;;;5051381;28;20110;-83
2022/11/03 05:08:17;;;;;;;45.30;8.60;;;3.70;99.90;;;;;;5051733;28;20044;-83
2022/11/03 05:10:46;;;;;;;37.37;9.07;;;3.70;99.90;;;;;;5052994;28;20024;-85
2022/11/03 05:13:23;;;;;;;13.60;8.43;;;3.70;99.90;;;;;;5052732;28;20033;-85
2022/11/03 05:15:51;;;;;;;30.17;9.50;;;3.70;99.90;;;;;;5053552;28;20096;-85
2022/11/03 05:18:20;;;;;;;47.97;10.40;;;3.70;99.90;;;;;;5053782;28;20377;-85
2022/11/03 05:20:49;;;;;;;30.23;9.80;;;3.70;99.90;;;;;;5054330;28;20067;-85
2022/11/03 05:23:16;;;;;;;14.73;8.63;;;3.60;99.90;;;;;;5053696;28;20489;-85
2022/11/03 05:25:45;;;;;;;14.53;7.67;;;3.60;99.90;;;;;;5053626;28;20296;-85
2022/11/03 05:28:24;;;;;;;16.37;8.57;;;3.60;99.90;;;;;;5053834;28;20025;-85
2022/11/03 05:30:51;;;;;;;12.73;7.33;;;3.50;99.90;;;;;;5048541;28;20857;-87
2022/11/03 05:33:31;;;;;;;11.23;6.87;;;3.60;99.90;;;;;;5052578;28;20777;-87
2022/11/03 05:35:59;;;;;;;11.60;6.70;;;3.60;99.90;;;;;;5052105;28;20025;-86
2022/11/03 05:38:29;;;;;;;15.37;7.70;;;3.60;99.90;;;;;;5052322;28;20021;-87
2022/11/03 05:40:55;;;;;;;121.87;9.77;;;3.60;99.90;;;;;;5051812;28;20025;-85
2022/11/03 05:43:21;;;;;;;21.63;7.57;;;3.60;99.90;;;;;;5051379;28;20158;-85
2022/11/03 05:45:53;;;;;;;66.87;10.80;;;3.60;99.90;;;;;;5051223;28;20096;-85
2022/11/03 05:48:30;;;;;;;206.40;10.63;;;3.70;99.90;;;;;;5051269;28;20021;-85
2022/11/03 05:50:59;;;;;;;12.73;8.30;;;3.80;99.90;;;;;;5049791;28;20184;-84
2022/11/03 05:53:30;;;;;;;36.90;8.70;;;3.80;99.90;;;;;;5050884;28;20029;-85
2022/11/03 05:55:59;;;;;;;53.77;9.27;;;3.80;99.90;;;;;;5051616;28;20040;-85
2022/11/03 05:58:35;;;;;;;21.57;8.97;;;3.90;99.90;;;;;;5051507;28;20036;-85
2022/11/03 06:01:09;;;;;;;71.50;8.77;;;3.90;99.90;;;;;;5051641;28;20021;-85
2022/11/03 06:03:36;;;;;;;57.17;11.63;;;4.00;99.90;;;;;;5049299;28;20120;-84
2022/11/03 06:06:10;;;;;;;77.70;9.47;;;4.00;99.90;;;;;;5050085;28;20056;-84
2022/11/03 06:08:35;;;;;;;38.47;10.30;;;4.00;99.90;;;;;;5046732;28;20079;-84
2022/11/03 06:11:03;;;;;;;14.10;9.33;;;4.00;99.90;;;;;;5032927;28;20029;-84
2022/11/03 06:13:33;;;;;;;66.47;9.50;;;4.10;99.90;;;;;;5033519;28;20021;-84
2022/11/03 06:16:23;;;;;;;29.17;7.73;;;4.10;99.90;;;;;;5032062;28;20480;-84
2022/11/03 06:18:50;;;;;;;21.97;8.80;;;4.10;99.90;;;;;;5032538;28;20133;-84
2022/11/03 06:21:22;;;;;;;20.30;8.90;;;4.20;99.90;;;;;;5045725;28;20104;-78
2022/11/03 06:23:48;;;;;;;83.63;8.50;;;4.20;99.90;;;;;;5047634;28;20136;-77
2022/11/03 06:26:18;;;;;;;114.33;9.70;;;4.20;99.90;;;;;;5050848;28;20111;-84
2022/11/03 06:28:44;;;;;;;18.37;8.53;;;4.30;99.90;;;;;;5052758;28;20070;-84
2022/11/03 06:31:31;;;;;;;19.23;9.03;;;4.30;99.90;;;;;;5052861;28;20033;-84
2022/11/03 06:33:57;;;;;;;33.43;8.60;;;4.30;99.90;;;;;;5052940;28;20088;-84
2022/11/03 06:36:35;;;;;;;13.73;7.93;;;4.30;99.90;;;;;;5052863;28;20492;-84
2022/11/03 06:39:02;;;;;;;21.50;9.17;;;4.40;99.90;;;;;;5032751;28;20087;-84
2022/11/03 06:41:31;;;;;;;33.53;9.80;;;4.50;99.90;;;;;;5031459;28;20030;-84
2022/11/03 06:44:00;;;;;;;69.23;10.60;;;4.60;99.90;;;;;;5032601;28;20022;-84
2022/11/03 06:46:25;;;;;;;75.63;10.47;;;4.60;99.90;;;;;;5048030;28;20087;-84
2022/11/03 06:48:54;;;;;;;224.03;13.40;;;4.70;99.90;;;;;;5032730;28;20424;-85
2022/11/03 06:51:27;;;;;;;68.80;11.83;;;4.80;99.90;;;;;;5032641;28;20036;-84
2022/11/03 06:53:56;;;;;;;33.80;12.17;;;4.80;99.90;;;;;;5032843;28;20033;-84
2022/11/03 06:56:25;;;;;;;75.67;12.53;;;4.80;99.90;;;;;;5032525;28;20029;-84
2022/11/03 06:58:55;;;;;;;57.57;12.60;;;4.90;99.90;;;;;;5032417;28;20029;-84
2022/11/03 07:01:23;;;;;;;100.47;11.47;;;5.00;99.90;;;;;;5032803;28;20071;-84
2022/11/03 07:03:51;;;;;;;31.50;10.70;;;5.00;99.90;;;;;;5032429;28;20036;-84
2022/11/03 07:06:23;;;;;;;62.63;11.30;;;5.10;99.90;;;;;;5032733;28;20029;-84
2022/11/03 07:08:53;;;;;;;23.13;12.93;;;5.10;99.90;;;;;;5046123;28;20350;-84
2022/11/03 07:11:31;;;;;;;18.83;10.20;;;5.20;99.90;;;;;;5052881;28;20452;-84
2022/11/03 07:14:04;;;;;;;34.03;9.53;;;5.20;99.90;;;;;;5050490;28;20061;-85
2022/11/03 07:16:37;;;;;;;22.13;9.37;;;5.20;99.90;;;;;;5046437;28;20048;-85
2022/11/03 07:19:05;;;;;;;24.63;8.60;;;5.20;99.90;;;;;;5051345;28;20037;-85
2022/11/03 07:21:39;;;;;;;49.73;9.43;;;5.30;99.90;;;;;;5053576;28;20033;-85
2022/11/03 07:24:27;;;;;;;16.27;8.60;;;5.30;99.90;;;;;;5054493;28;20109;-85
2022/11/03 07:27:27;;;;;;;32.43;9.50;;;5.30;99.90;;;;;;5054862;28;20060;-85
2022/11/03 07:30:10;;;;;;;18.27;8.40;;;5.30;99.90;;;;;;5048765;28;20396;-85
2022/11/03 07:32:35;;;;;;;25.03;7.93;;;5.40;99.90;;;;;;5051530;28;20017;-85
2022/11/03 07:35:15;;;;;;;21.07;8.30;;;5.40;99.90;;;;;;5055162;28;20056;-85
2022/11/03 07:37:41;;;;;;;12.67;8.37;;;5.50;99.90;;;;;;5053563;28;20378;-85
2022/11/03 07:40:16;;;;;;;21.37;7.90;;;5.50;99.90;;;;;;5054384;28;20084;-85
2022/11/03 07:42:42;;;;;;;127.10;10.03;;;5.60;99.90;;;;;;5052180;28;20092;-85
2022/11/03 07:45:50;;;;;;;32.37;8.10;;;5.70;99.90;;;;;;5053654;28;20108;-85
2022/11/03 07:48:27;;;;;;;34.70;7.80;;;5.70;99.90;;;;;;5054384;28;20121;-85
2022/11/03 07:50:55;;;;;;;12.60;7.40;;;5.80;99.90;;;;;;5053734;28;20021;-85
2022/11/03 07:53:29;;;;;;;9.07;6.40;;;5.90;99.90;;;;;;5052938;28;20024;-85
2022/11/03 07:55:55;;;;;;;29.75;12.07;;;5.90;99.90;;;;;;5053317;28;20048;-85
2022/11/03 07:58:34;;;;;;;53.40;8.73;;;6.00;99.90;;;;;;5053432;28;20101;-85
2022/11/03 08:01:06;;;;;;;46.93;8.43;;;6.00;99.90;;;;;;5051721;28;20025;-85
2022/11/03 08:03:43;;;;;;;57.23;8.13;;;6.10;99.90;;;;;;5050112;28;20023;-84
2022/11/03 08:06:08;;;;;;;82.67;8.87;;;6.20;99.90;;;;;;5054360;28;20021;-84
2022/11/03 08:08:34;;;;;;;28.73;8.73;;;6.20;99.90;;;;;;5054087;28;20469;-84
2022/11/03 08:11:00;;;;;;;35.10;8.37;;;6.20;99.90;;;;;;5054459;28;20479;-84
2022/11/03 08:13:25;;;;;;;36.60;6.93;;;6.30;99.90;;;;;;5054461;28;20094;-84
2022/11/03 08:15:51;;;;;;;20.70;6.73;;;6.30;99.90;;;;;;5054178;28;20048;-84
2022/11/03 08:18:16;;;;;;;26.50;6.93;;;6.40;99.90;;;;;;5054377;28;20104;-84
2022/11/03 08:20:42;;;;;;;21.27;7.13;;;6.40;99.90;;;;;;5050245;28;20032;-84
2022/11/03 08:23:10;;;;;;;18.87;7.23;;;6.50;99.90;;;;;;5047115;28;20074;-84
2022/11/03 08:25:35;;;;;;;8.57;6.13;;;6.60;99.90;;;;;;5046350;28;20021;-84
2022/11/03 08:28:02;;;;;;;24.97;7.17;;;6.70;99.90;;;;;;5047480;28;20496;-83
2022/11/03 08:30:28;;;;;;;14.93;7.00;;;6.80;99.90;;;;;;5045444;28;20039;-83
2022/11/03 08:32:54;;;;;;;47.07;6.90;;;6.80;99.90;;;;;;5046287;28;20060;-83
2022/11/03 08:35:20;;;;;;;20.20;7.33;;;6.90;99.90;;;;;;5045318;28;20067;-83
2022/11/03 08:37:45;;;;;;;10.03;6.20;;;6.90;99.90;;;;;;5046961;28;20477;-83
2022/11/03 08:40:12;;;;;;;12.17;6.27;;;7.10;99.90;;;;;;5045780;28;20017;-83
2022/11/03 08:42:37;;;;;;;12.77;6.53;;;7.10;99.90;;;;;;5046653;28;20126;-83
2022/11/03 08:45:03;;;;;;;19.60;8.30;;;7.20;99.90;;;;;;5047191;28;20556;-83
2022/11/03 08:47:29;;;;;;;45.33;8.63;;;7.30;99.90;;;;;;5046213;28;20128;-84
2022/11/03 08:49:54;;;;;;;49.17;8.97;;;7.40;99.90;;;;;;5045188;28;20131;-84
2022/11/03 08:52:20;;;;;;;58.53;8.50;;;7.50;99.90;;;;;;5046306;28;20033;-84
2022/11/03 08:54:46;;;;;;;107.93;10.17;;;7.50;99.90;;;;;;5046688;28;20029;-84
2022/11/03 08:57:11;;;;;;;19.93;8.93;;;7.40;99.90;;;;;;5046593;28;20032;-83
2022/11/03 08:59:37;;;;;;;34.20;8.87;;;7.40;99.90;;;;;;5044265;28;20633;-83
2022/11/03 09:02:03;;;;;;;68.53;9.43;;;7.40;99.90;;;;;;5046902;28;20060;-83
2022/11/03 09:04:29;;;;;;;28.50;9.03;;;7.40;99.90;;;;;;5046021;28;20037;-84
2022/11/03 09:06:54;;;;;;;21.13;8.33;;;7.40;99.90;;;;;;5044310;28;20032;-84
2022/11/03 09:09:20;;;;;;;24.17;8.80;;;7.50;99.90;;;;;;5043549;28;20387;-84
2022/11/03 09:11:46;;;;;;;26.30;8.87;;;7.60;99.90;;;;;;5046017;28;20473;-84
2022/11/03 09:14:12;;;;;;;30.67;9.10;;;7.70;99.90;;;;;;5046554;28;20705;-84
2022/11/03 09:16:38;;;;;;;21.80;9.57;;;7.70;99.90;;;;;;5045521;28;20051;-83
2022/11/03 09:19:03;;;;;;;27.17;8.63;;;7.80;99.90;;;;;;5045240;28;20044;-83
2022/11/03 09:21:29;;;;;;;19.57;8.83;;;7.80;99.90;;;;;;5046454;28;20040;-84
2022/11/03 09:23:54;;;;;;;23.10;9.07;;;7.80;99.90;;;;;;5045916;28;20032;-83
2022/11/03 09:26:20;;;;;;;22.00;8.17;;;7.90;99.90;;;;;;5045617;28;20035;-84
2022/11/03 09:28:48;;;;;;;34.00;12.70;;;7.90;99.90;;;;;;5026401;28;20044;-83
2022/11/03 09:31:14;;;;;;;18.77;8.93;;;8.00;99.90;;;;;;5031671;28;20123;-83
2022/11/03 09:33:39;;;;;;;12.43;9.17;;;8.00;99.90;;;;;;5029654;28;20032;-84
2022/11/03 09:36:05;;;;;;;13.87;9.10;;;8.10;99.90;;;;;;5036509;28;20104;-84
2022/11/03 09:38:31;;;;;;;14.90;8.43;;;8.10;99.90;;;;;;5045081;28;20052;-84
2022/11/03 09:40:56;;;;;;;76.90;39.40;;;8.20;99.90;;;;;;5045984;28;20136;-84
2022/11/03 09:43:22;;;;;;;17.60;9.00;;;8.30;99.90;;;;;;5043654;28;20017;-84
2022/11/03 09:45:48;;;;;;;13.77;8.00;;;8.30;99.90;;;;;;5044378;28;20040;-84
2022/11/03 09:48:14;;;;;;;40.63;8.57;;;8.30;99.90;;;;;;5044673;28;20029;-84
2022/11/03 09:50:40;;;;;;;10.97;8.17;;;8.40;99.90;;;;;;5046169;28;20060;-84
2022/11/03 09:53:08;;;;;;;9.63;7.63;;;8.40;99.90;;;;;;5045720;28;20039;-84
2022/11/03 09:55:34;;;;;;;9.53;7.27;;;8.50;99.90;;;;;;5043577;28;20035;-84
2022/11/03 09:58:08;;;;;;;21.13;8.03;;;8.60;99.90;;;;;;5045698;28;20040;-84
2022/11/03 10:00:34;;;;;;;17.23;9.13;;;8.70;99.90;;;;;;5044817;28;20104;-83
2022/11/03 10:03:02;;;;;;;23.23;8.33;;;8.80;99.90;;;;;;5045286;28;20025;-84
2022/11/03 10:05:28;;;;;;;24.10;7.87;;;8.90;99.90;;;;;;5042145;28;20044;-84
2022/11/03 10:07:58;;;;;;;19.60;8.80;;;8.90;99.90;;;;;;5045512;28;20044;-84
2022/11/03 10:10:24;;;;;;;12.67;7.93;;;8.90;99.90;;;;;;5045170;28;20119;-84
2022/11/03 10:12:52;;;;;;;9.73;7.43;;;8.90;99.90;;;;;;5045377;28;20021;-84
2022/11/03 10:15:20;;;;;;;10.03;7.60;;;9.00;99.90;;;;;;5043680;28;20049;-83
2022/11/03 10:17:46;;;;;;;10.20;8.10;;;9.00;99.90;;;;;;5043824;28;20036;-84
2022/11/03 10:20:15;;;;;;;14.97;11.03;;;9.10;99.90;;;;;;5045367;28;20025;-84
2022/11/03 10:22:42;;;;;;;14.27;10.03;;;9.20;99.90;;;;;;5044482;28;20489;-84
2022/11/03 10:25:37;;;;;;;14.00;8.97;;;9.30;99.90;;;;;;5043530;28;20029;-84
2022/11/03 10:28:17;;;;;;;14.23;9.85;;;9.30;99.90;;;;;;5048247;28;20036;-84
2022/11/03 10:30:56;;;;;;;13.07;10.60;;;9.40;99.90;;;;;;5041362;28;20091;-84
2022/11/03 10:33:29;;;;;;;10.67;8.97;;;9.50;99.90;;;;;;5035533;28;20115;-84
2022/11/03 10:35:57;;;;;;;13.70;8.20;;;9.60;99.90;;;;;;5049107;28;20036;-84
2022/11/03 10:38:31;;;;;;;13.03;8.70;;;9.70;99.90;;;;;;5049856;28;20104;-84
2022/11/03 10:41:18;;;;;;;12.55;9.07;;;9.70;99.90;;;;;;5049056;28;20033;-84
2022/11/03 10:43:57;;;;;;;13.35;8.18;;;9.80;99.90;;;;;;5049454;28;20044;-83
2022/11/03 10:46:23;;;;;;;14.00;9.00;;;10.00;99.90;;;;;;5050193;28;20436;-84
2022/11/03 10:49:09;;;;;;;10.87;8.17;;;10.00;99.90;;;;;;5050581;28;20025;-84
2022/11/03 10:51:35;;;;;;;12.90;7.82;;;10.20;99.90;;;;;;5048272;28;20041;-84
2022/11/03 10:54:04;;;;;;;12.55;8.48;;;10.30;99.90;;;;;;5041964;28;20478;-84
2022/11/03 10:56:33;;;;;;;15.10;8.63;;;10.30;99.90;;;;;;5040167;28;20020;-84
2022/11/03 10:59:00;;;;;;;9.57;7.55;;;10.30;99.90;;;;;;5053259;28;20074;-84
2022/11/03 11:01:26;;;;;;;12.30;7.50;;;10.40;99.90;;;;;;5054001;28;20087;-84
2022/11/03 11:03:51;;;;;;;12.65;7.35;;;10.60;99.90;;;;;;5053296;28;20020;-84
2022/11/03 11:06:21;;;;;;;10.80;7.68;;;10.70;99.90;;;;;;5053903;28;20033;-84
2022/11/03 11:08:49;;;;;;;11.63;7.50;;;10.90;99.90;;;;;;5053677;28;20089;-84
2022/11/03 11:11:17;;;;;;;10.90;8.10;;;11.00;99.90;;;;;;5053527;28;20093;-84
2022/11/03 11:13:43;;;;;;;9.82;6.78;;;11.10;99.90;;;;;;5053918;28;20459;-84
2022/11/03 11:17:00;;;;;;;11.60;7.00;;;11.20;99.90;;;;;;5053608;28;20041;-84
2022/11/03 11:19:28;;;;;;;10.80;6.68;;;11.30;99.90;;;;;;5052594;28;20056;-84
2022/11/03 11:21:59;;;;;;;10.05;7.13;;;11.50;99.90;;;;;;5053220;28;20039;-84
2022/11/03 11:24:43;;;;;;;11.50;6.88;;;11.60;99.90;;;;;;5052151;28;20036;-84
2022/11/03 11:27:33;;;;;;;9.80;7.15;;;11.70;99.90;;;;;;5053329;28;20029;-84
2022/11/03 11:30:03;;;;;;;9.13;6.80;;;11.90;99.90;;;;;;5050533;28;20036;-84
2022/11/03 11:32:38;;;;;;;12.88;7.78;;;12.00;99.90;;;;;;5042739;28;20108;-84
2022/11/03 11:35:08;;;;;;;11.93;7.55;;;12.00;99.90;;;;;;5032451;28;20065;-84
2022/11/03 11:37:36;;;;;;;12.90;7.97;;;12.00;99.90;;;;;;5032845;28;20052;-84
2022/11/03 11:40:22;;;;;;;11.18;7.32;;;12.20;99.90;;;;;;5035451;28;20036;-84
2022/11/03 11:43:00;;;;;;;12.15;7.70;;;12.20;99.90;;;;;;5034662;28;20428;-84
2022/11/03 11:46:03;;;;;;;11.38;6.88;;;12.30;99.90;;;;;;5052204;28;20053;-84
2022/11/03 11:48:28;;;;;;;11.60;7.65;;;12.20;99.90;;;;;;5051446;28;20062;-84
2022/11/03 11:50:57;;;;;;;12.27;7.57;;;12.30;99.90;;;;;;5052357;28;20390;-84
2022/11/03 11:53:24;;;;;;;10.68;7.30;;;12.20;99.90;;;;;;5052903;28;20029;-84
2022/11/03 11:55:56;;;;;;;10.07;7.82;;;12.20;99.90;;;;;;5054223;28;20029;-84
2022/11/03 11:58:44;;;;;;;9.27;7.45;;;12.10;99.90;;;;;;5051829;28;20029;-86
2022/11/03 12:01:29;;;;;;;13.50;8.20;;;12.10;99.90;;;;;;5055197;28;20017;-86
2022/11/03 12:03:58;;;;;;;11.50;8.23;;;12.10;99.90;;;;;;5054746;28;20055;-86
2022/11/03 12:06:36;;;;;;;11.45;7.68;;;12.20;99.90;;;;;;5054267;28;20025;-86
2022/11/03 12:09:18;;;;;;;12.85;7.53;;;12.20;99.90;;;;;;5054919;28;20033;-86
2022/11/03 12:11:55;;;;;;;11.68;7.88;;;12.30;99.90;;;;;;5054952;28;20426;-86
2022/11/03 12:14:24;;;;;;;9.68;7.00;;;12.40;99.90;;;;;;5055270;28;20029;-84
2022/11/03 12:16:50;;;;;;;11.27;7.07;;;12.60;99.90;;;;;;5055606;28;20403;-84
2022/11/03 12:19:52;;;;;;;9.52;7.32;;;12.70;99.90;;;;;;5054906;28;20036;-85
2022/11/03 12:22:25;;;;;;;12.02;7.25;;;12.80;99.90;;;;;;5011164;28;20026;-86
2022/11/03 12:25:07;;;;;;;11.05;7.53;;;12.90;99.90;;;;;;5047463;28;20090;-85
2022/11/03 12:27:38;;;;;;;11.57;8.57;;;12.90;99.90;;;;;;5053014;28;20378;-86
2022/11/03 12:30:15;;;;;;;12.50;9.02;;;12.90;99.90;;;;;;5051383;28;20033;-86
2022/11/03 12:32:41;;;;;;;11.18;8.68;;;13.00;99.90;;;;;;5041701;28;20083;-86
2022/11/03 12:35:08;;;;;;;12.70;8.43;;;13.00;99.90;;;;;;5052292;28;20025;-87
2022/11/03 12:37:34;;;;;;;18.35;8.82;;;13.00;99.90;;;;;;5052252;28;20454;-86
2022/11/03 12:40:00;;;;;;;13.85;8.20;;;13.00;99.90;;;;;;5054103;28;20028;-86
2022/11/03 12:42:28;;;;;;;11.40;8.25;;;13.00;99.90;;;;;;5053992;28;20021;-86
2022/11/03 12:44:54;;;;;;;14.32;8.77;;;13.10;99.90;;;;;;5054152;28;20074;-86
2022/11/03 12:47:20;;;;;;;11.13;8.30;;;13.10;99.90;;;;;;5052395;28;20021;-84
2022/11/03 12:49:46;;;;;;;13.05;8.35;;;13.00;99.90;;;;;;5051739;28;20362;-84
2022/11/03 12:52:11;;;;;;;12.75;8.68;;;13.00;99.90;;;;;;5052499;28;20037;-86
2022/11/03 12:54:38;;;;;;;11.98;8.25;;;13.00;99.90;;;;;;5053909;28;20017;-85
2022/11/03 12:57:04;;;;;;;10.75;8.35;;;13.00;99.90;;;;;;5051895;28;20470;-84
2022/11/03 12:59:29;;;;;;;12.43;8.82;;;13.10;99.90;;;;;;5051654;28;20024;-84
2022/11/03 13:01:55;;;;;;;17.20;9.13;;;13.00;99.90;;;;;;5050726;28;20087;-84
2022/11/03 13:04:20;;;;;;;14.50;9.50;;;13.00;99.90;;;;;;5051213;28;20025;-84
2022/11/03 13:06:47;;;;;;;11.88;8.70;;;12.90;99.90;;;;;;5050504;28;20017;-88
2022/11/03 13:09:13;;;;;;;15.32;9.70;;;12.90;99.90;;;;;;5035106;28;20039;-87
2022/11/03 13:14:25;;;;;;;13.75;10.75;;;12.80;99.90;;;;;;5050513;28;20043;-81
2022/11/03 13:16:50;;;;;;;16.85;10.93;;;12.80;99.90;;;;;;5049613;28;20484;-81
2022/11/03 13:19:16;;;;;;;14.77;11.00;;;12.70;99.90;;;;;;5049887;28;20033;-81
2022/11/03 13:21:42;;;;;;;14.88;11.60;;;12.70;99.90;;;;;;5050417;28;20025;-81
2022/11/03 13:24:07;;;;;;;17.98;11.40;;;12.70;99.90;;;;;;5048331;28;20033;-81